createdAt,value
2022-10-17T00:01:54.915Z,6.40
2022-10-17T00:06:10.009Z,6.05
2022-10-17T00:10:24.416Z,6.28
2022-10-17T00:14:38.182Z,5.73
2022-10-17T00:18:53.298Z,4.90
2022-10-17T00:23:06.995Z,5.32
2022-10-17T00:27:20.741Z,5.10
2022-10-17T00:31:35.704Z,5.30
2022-10-17T00:35:50.709Z,5.05
2022-10-17T00:40:05.780Z,4.28
2022-10-17T00:45:00.590Z,4.77
2022-10-17T00:49:14.361Z,4.63
2022-10-17T00:53:29.629Z,4.65
2022-10-17T00:57:45.331Z,4.50
2022-10-17T01:02:04.752Z,4.68
2022-10-17T01:06:18.562Z,5.03
2022-10-17T01:10:40.816Z,4.88
2022-10-17T01:15:06.366Z,5.20
2022-10-17T01:19:51.453Z,4.70
2022-10-17T01:24:38.156Z,4.78
2022-10-17T01:29:17.412Z,4.83
2022-10-17T01:33:44.420Z,4.63
2022-10-17T01:38:07.570Z,5.30
2022-10-17T01:42:28.249Z,4.43
2022-10-17T01:46:46.162Z,3.55
2022-10-17T01:51:07.635Z,4.45
2022-10-17T01:55:25.553Z,3.55
2022-10-17T01:59:42.713Z,4.53
2022-10-17T02:03:59.263Z,4.18
2022-10-17T02:08:25.746Z,4.00
2022-10-17T02:12:48.757Z,3.47
2022-10-17T02:17:10.388Z,3.65
2022-10-17T02:21:33.491Z,3.50
2022-10-17T02:25:54.672Z,3.70
2022-10-17T02:30:13.390Z,4.10
2022-10-17T02:34:31.160Z,2.83
2022-10-17T02:38:47.504Z,3.78
2022-10-17T02:43:02.636Z,3.33
2022-10-17T02:47:23.374Z,3.60
2022-10-17T02:51:45.300Z,3.55
2022-10-17T02:56:06.048Z,3.83
2022-10-17T03:00:23.201Z,4.57
2022-10-17T03:04:37.109Z,3.65
2022-10-17T03:08:50.860Z,3.93
2022-10-17T03:13:04.514Z,4.28
2022-10-17T03:17:24.337Z,4.15
2022-10-17T03:21:38.503Z,4.35
2022-10-17T03:25:53.734Z,4.40
2022-10-17T03:30:08.928Z,4.60
2022-10-17T03:34:24.684Z,4.55
2022-10-17T03:38:40.551Z,4.80
2022-10-17T03:42:54.852Z,4.70
2022-10-17T03:47:10.590Z,4.18
2022-10-17T03:51:28.670Z,4.50
2022-10-17T03:55:48.809Z,4.13
2022-10-17T04:00:02.807Z,2.75
2022-10-17T04:04:16.850Z,3.22
2022-10-17T04:08:34.857Z,3.37
2022-10-17T04:12:56.367Z,3.60
2022-10-17T04:17:10.429Z,3.20
2022-10-17T04:21:27.370Z,3.03
2022-10-17T04:25:43.045Z,3.50
2022-10-17T04:29:56.887Z,3.72
2022-10-17T04:34:14.152Z,3.40
2022-10-17T04:38:28.814Z,3.60
2022-10-17T04:42:44.705Z,3.40
2022-10-17T04:47:01.412Z,3.13
2022-10-17T04:51:16.693Z,3.10
2022-10-17T04:55:56.224Z,3.50
2022-10-17T05:00:13.123Z,3.10
2022-10-17T05:04:39.737Z,2.90
2022-10-17T05:08:54.179Z,3.03
2022-10-17T05:13:08.683Z,2.90
2022-10-17T05:17:24.897Z,2.60
2022-10-17T05:21:38.706Z,2.67
2022-10-17T05:25:56.653Z,2.83
2022-10-17T05:30:11.808Z,3.00
2022-10-17T05:34:28.466Z,2.70
2022-10-17T05:38:44.651Z,3.10
2022-10-17T05:42:58.756Z,3.38
2022-10-17T05:47:12.705Z,2.87
2022-10-17T05:51:27.844Z,2.85
2022-10-17T05:55:43.664Z,3.22
2022-10-17T05:59:57.586Z,3.27
2022-10-17T06:04:11.710Z,3.10
2022-10-17T06:08:26.797Z,2.83
2022-10-17T06:12:41.275Z,3.20
2022-10-17T06:16:55.269Z,3.10
2022-10-17T06:21:11.772Z,3.28
2022-10-17T06:25:33.499Z,3.38
2022-10-17T06:29:47.828Z,3.43
2022-10-17T06:34:01.772Z,3.13
2022-10-17T06:38:16.365Z,2.97
2022-10-17T06:42:32.042Z,3.10
2022-10-17T06:47:16.651Z,3.13
2022-10-17T06:51:35.608Z,3.00
2022-10-17T06:55:53.151Z,2.90
2022-10-17T07:00:20.472Z,2.03
2022-10-17T07:04:39.083Z,2.60
2022-10-17T07:08:52.930Z,2.38
2022-10-17T07:13:06.863Z,2.83
2022-10-17T07:17:23.540Z,2.22
2022-10-17T07:21:39.192Z,2.38
2022-10-17T07:25:54.778Z,2.27
2022-10-17T07:30:10.690Z,2.58
2022-10-17T07:34:31.342Z,2.30
2022-10-17T07:38:48.109Z,2.38
2022-10-17T07:43:02.212Z,2.20
2022-10-17T07:47:16.818Z,2.45
2022-10-17T07:51:33.586Z,2.30
2022-10-17T07:55:49.621Z,2.17
2022-10-17T08:00:06.833Z,2.60
2022-10-17T08:04:26.215Z,2.20
2022-10-17T08:08:41.771Z,2.30
2022-10-17T08:12:55.650Z,2.60
2022-10-17T08:17:09.708Z,2.55
2022-10-17T08:21:23.403Z,2.40
2022-10-17T08:25:40.805Z,2.43
2022-10-17T08:29:54.689Z,2.10
2022-10-17T08:34:08.348Z,2.20
2022-10-17T08:38:27.546Z,2.47
2022-10-17T08:43:10.461Z,2.35
2022-10-17T08:47:29.367Z,2.10
2022-10-17T08:51:50.641Z,2.20
2022-10-17T08:56:19.469Z,2.38
2022-10-17T09:00:42.214Z,2.40
2022-10-17T09:05:18.071Z,2.08
2022-10-17T09:09:42.236Z,2.20
2022-10-17T09:14:09.853Z,2.35
2022-10-17T09:18:29.419Z,2.40
2022-10-17T09:22:48.871Z,2.40
2022-10-17T09:27:03.288Z,2.20
2022-10-17T09:31:24.473Z,2.40
2022-10-17T09:35:41.474Z,2.77
2022-10-17T09:39:55.155Z,2.33
2022-10-17T09:44:19.900Z,2.60
2022-10-17T09:48:38.441Z,2.65
2022-10-17T09:52:55.576Z,2.80
2022-10-17T09:57:11.380Z,3.13
2022-10-17T10:01:28.291Z,2.55
2022-10-17T10:05:42.842Z,2.67
2022-10-17T10:09:59.370Z,2.30
2022-10-17T10:14:14.640Z,3.00
2022-10-17T10:18:34.135Z,2.53
2022-10-17T10:23:07.411Z,2.35
2022-10-17T10:27:23.092Z,2.40
2022-10-17T10:31:39.202Z,2.50
2022-10-17T10:35:58.780Z,1.90
2022-10-17T10:40:19.290Z,2.10
2022-10-17T10:44:37.695Z,2.55
2022-10-17T10:48:54.311Z,2.13
2022-10-17T10:53:35.721Z,2.20
2022-10-17T10:57:54.500Z,1.90
2022-10-17T11:02:20.402Z,1.90
2022-10-17T11:06:37.748Z,2.10
2022-10-17T11:11:03.244Z,2.10
2022-10-17T11:15:26.709Z,2.28
2022-10-17T11:19:49.699Z,2.00
2022-10-17T11:24:13.537Z,2.10
2022-10-17T11:28:27.520Z,1.90
2022-10-17T11:32:45.730Z,2.30
2022-10-17T11:37:05.226Z,2.00
2022-10-17T11:41:25.740Z,2.10
2022-10-17T11:45:44.330Z,2.40
2022-10-17T11:54:43.355Z,2.50
2022-10-17T11:59:15.205Z,2.50
2022-10-17T12:03:53.027Z,2.43
2022-10-17T12:08:14.800Z,2.25
2022-10-17T12:12:32.166Z,2.30
2022-10-17T12:16:47.606Z,2.57
2022-10-17T12:21:02.272Z,2.05
2022-10-17T12:25:20.879Z,2.45
2022-10-17T12:29:36.521Z,2.23
2022-10-17T12:33:52.012Z,2.00
2022-10-17T12:38:24.975Z,2.67
2022-10-17T12:42:51.895Z,2.17
2022-10-17T12:47:38.072Z,2.10
2022-10-17T12:52:29.003Z,2.10
2022-10-17T12:56:45.636Z,2.30
2022-10-17T13:05:39.126Z,2.05
2022-10-17T13:09:53.332Z,2.08
2022-10-17T13:14:14.809Z,2.50
2022-10-17T13:18:30.310Z,2.30
2022-10-17T13:22:47.185Z,2.22
2022-10-17T13:27:02.881Z,2.25
2022-10-17T13:31:30.619Z,2.17
2022-10-17T13:36:01.050Z,2.08
2022-10-17T13:40:40.817Z,2.30
2022-10-17T13:44:55.035Z,2.10
2022-10-17T13:49:17.941Z,2.45
2022-10-17T13:53:34.250Z,2.13
2022-10-17T13:57:49.327Z,2.30
2022-10-17T14:02:03.515Z,2.40
2022-10-17T14:06:20.404Z,2.38
2022-10-17T14:10:37.913Z,2.28
2022-10-17T14:15:11.220Z,2.23
2022-10-17T14:19:28.771Z,2.10
2022-10-17T14:23:44.591Z,2.20
2022-10-17T14:28:07.954Z,2.10
2022-10-17T14:32:23.780Z,2.15
2022-10-17T14:36:42.031Z,2.40
2022-10-17T14:41:15.677Z,3.07
2022-10-17T14:45:39.123Z,2.25
2022-10-17T14:50:09.513Z,2.30
2022-10-17T14:54:27.033Z,2.30
2022-10-17T14:58:40.747Z,2.50
2022-10-17T15:02:56.381Z,2.30
2022-10-17T15:07:15.489Z,2.40
2022-10-17T15:11:29.602Z,2.50
2022-10-17T15:15:44.900Z,2.30
2022-10-17T15:19:58.991Z,2.35
2022-10-17T15:24:15.063Z,2.60
2022-10-17T15:28:29.021Z,2.70
2022-10-17T15:32:42.895Z,3.22
2022-10-17T15:36:56.709Z,2.95
2022-10-17T15:41:12.580Z,2.93
2022-10-17T15:45:26.559Z,2.60
2022-10-17T15:49:40.222Z,2.60
2022-10-17T15:53:53.973Z,2.90
2022-10-17T15:58:13.681Z,2.70
2022-10-17T16:02:27.716Z,2.60
2022-10-17T16:06:41.606Z,2.70
2022-10-17T16:10:55.601Z,3.17
2022-10-17T16:15:15.637Z,3.55
2022-10-17T16:19:30.109Z,4.40
2022-10-17T16:23:44.615Z,3.60
2022-10-17T16:28:00.833Z,3.13
2022-10-17T16:32:16.026Z,2.90
2022-10-17T16:36:29.986Z,3.37
2022-10-17T16:40:43.747Z,3.50
2022-10-17T16:44:57.424Z,3.08
2022-10-17T16:49:13.071Z,3.30
2022-10-17T16:53:26.820Z,3.17
2022-10-17T16:57:40.526Z,3.83
2022-10-17T17:01:54.367Z,3.70
2022-10-17T17:06:12.815Z,3.70
2022-10-17T17:10:26.488Z,3.50
2022-10-17T17:14:40.521Z,3.97
2022-10-17T17:18:56.600Z,4.63
2022-10-17T17:23:15.743Z,3.80
2022-10-17T17:27:30.069Z,4.00
2022-10-17T17:31:44.064Z,4.40
2022-10-17T17:35:58.265Z,4.35
2022-10-17T17:40:13.824Z,4.80
2022-10-17T17:44:27.562Z,5.10
2022-10-17T17:48:42.390Z,4.80
2022-10-17T17:52:56.015Z,4.80
2022-10-17T17:57:11.062Z,5.10
2022-10-17T18:01:27.386Z,5.63
2022-10-17T18:05:41.634Z,6.75
2022-10-17T18:09:57.060Z,6.43
2022-10-17T18:14:14.102Z,5.90
2022-10-17T18:18:29.091Z,6.97
2022-10-17T18:22:42.763Z,6.70
2022-10-17T18:26:59.746Z,8.23
2022-10-17T18:31:18.949Z,7.27
2022-10-17T18:35:32.960Z,6.10
2022-10-17T18:39:48.468Z,6.70
2022-10-17T18:44:02.973Z,7.00
2022-10-17T18:48:18.310Z,5.72
2022-10-17T18:52:32.093Z,6.72
2022-10-17T18:56:45.875Z,7.50
2022-10-17T19:01:04.499Z,7.40
2022-10-17T19:05:19.570Z,8.20
2022-10-17T19:09:33.368Z,7.85
2022-10-17T19:13:48.123Z,6.73
2022-10-17T19:18:01.862Z,6.53
2022-10-17T19:22:17.107Z,6.75
2022-10-17T19:26:33.089Z,8.40
2022-10-17T19:30:46.769Z,5.90
2022-10-17T19:35:00.717Z,6.57
2022-10-17T19:39:18.802Z,5.20
2022-10-17T19:43:32.632Z,6.05
2022-10-17T19:47:46.373Z,6.05
2022-10-17T19:52:00.185Z,5.20
2022-10-17T19:56:18.554Z,5.20
2022-10-17T20:00:32.216Z,7.22
2022-10-17T20:04:54.650Z,5.75
2022-10-17T20:09:19.509Z,5.70
2022-10-17T20:13:37.032Z,5.38
2022-10-17T20:17:50.859Z,5.40
2022-10-17T20:22:04.552Z,14.40
2022-10-17T20:26:36.606Z,6.35
2022-10-17T20:30:53.135Z,5.93
2022-10-17T20:35:08.455Z,6.05
2022-10-17T20:39:22.285Z,6.53
2022-10-17T20:43:36.883Z,6.50
2022-10-17T20:47:54.269Z,5.85
2022-10-17T20:52:08.284Z,5.83
2022-10-17T20:56:25.668Z,5.18
2022-10-17T21:00:40.116Z,5.15
2022-10-17T21:04:55.168Z,5.77
2022-10-17T21:09:09.206Z,6.25
2022-10-17T21:13:22.892Z,5.40
2022-10-17T21:17:36.594Z,5.53
2022-10-17T21:21:51.870Z,4.73
2022-10-17T21:26:07.168Z,4.38
2022-10-17T21:30:21.703Z,4.07
2022-10-17T21:34:35.456Z,4.57
2022-10-17T21:38:52.300Z,4.20
2022-10-17T21:43:05.945Z,4.30
2022-10-17T21:47:21.429Z,4.57
2022-10-17T21:51:35.946Z,4.68
2022-10-17T21:55:50.999Z,4.75
2022-10-17T22:00:05.472Z,4.40
2022-10-17T22:04:25.957Z,4.80
2022-10-17T22:08:40.650Z,4.50
2022-10-17T22:12:55.691Z,4.72
2022-10-17T22:17:09.333Z,5.00
2022-10-17T22:21:23.721Z,4.72
2022-10-17T22:25:37.391Z,4.57
2022-10-17T22:29:52.509Z,4.73
2022-10-17T22:34:07.601Z,4.65
2022-10-17T22:38:21.287Z,4.97
2022-10-17T22:42:35.093Z,5.03
2022-10-17T22:46:50.476Z,5.23
2022-10-17T22:51:04.256Z,5.18
2022-10-17T22:55:18.523Z,4.88
2022-10-17T22:59:32.224Z,5.43
2022-10-17T23:03:47.876Z,5.63
2022-10-17T23:08:01.502Z,5.45
2022-10-17T23:12:15.165Z,5.20
2022-10-17T23:16:28.779Z,4.80
2022-10-17T23:20:43.800Z,5.25
2022-10-17T23:24:57.492Z,4.78
2022-10-17T23:29:11.132Z,5.37
2022-10-17T23:33:24.838Z,5.55
2022-10-17T23:37:39.936Z,4.97
2022-10-17T23:41:53.642Z,5.13
2022-10-17T23:46:08.002Z,5.18
2022-10-17T23:50:21.863Z,5.20
2022-10-17T23:54:36.977Z,5.30
2022-10-17T23:58:50.732Z,5.32
